< < Back
Terminal Aerodrome Forecast


Current Version              Previous Versions:   1  2  3  4  5  6  7  8  9  

Terminal Aerodrome Forecast

270
FTUS42 KFFC 231900 AAA
TAFATL
TAF AMD
KATL 231952Z 2320/2424 33012G18KT P6SM SKC
     FM232300 32007KT P6SM SKC
     FM240700 02004KT P6SM SKC
     FM241400 10008KT P6SM SKC
     FM241800 16010KT P6SM SCT040=

Latest METAR

165
SAUS70 KWBC 232300 RRC
MTRATL
METAR KATL 232252Z 30009KT 10SM CLR 23/M01 A2991 RMK AO2 SLP121
T02331011


USA.gov is the U.S. government's official web portal to all federal, state and local government web resources and services.